Welcome to La Porte Aviation Services!

An aviation adventure awaits

Current Weather Conditions

Available data for KPPO from the past 2 hours
LA PORTE, IN
Metar
KPPO 200235Z AUTO 36008KT 10SM CLR 04/02 A2980 RMK AO2 T00350015

02:35 UTC

Wind: 360° 8kt

Visibility: 10 SM

Sky:

Temp: 4 deg C / 39.2 deg F

Dewpoint: 2 deg C / 35.6 deg F

Pressure: 29.8 inHg

Pireps (5)
MDW UUA /OV KMDW/TM 0232/FL010/TP B737/RM LLWS +/-15 KT SFC-010 DURD RY4R MDW
BTL UA /OV AZO045017/TM 0220/FL390/TP B752/TB OCNL MOD CHOP
FWA UA /OV FWA/TM 0131/FL005/TP CRJ2/TB +/- 10 KT/RM RUNWAY 5 ON FINAL
FWA UA /OV FWA/TM 0114/FL006/TP CRJ2/TB +/- 10-15KT/RM RUNWAY 5
LAF UA /OV BVT/TM 0110/FL390/TP B737/TB LGT-MOD CHOP

Connect with us on Facebook!

Facebook By Weblizar Powered By Weblizar